sensor_id;sensor_type;location;lat;lon;timestamp;pressure;altitude;pressure_sealevel;temperature;humidity
6216;BME280;3141;49.234;9.326;2023-11-21T00:00:56;99062.44;;;12.37;83.81
6216;BME280;3141;49.234;9.326;2023-11-21T00:01:57;99052.47;;;12.39;84.40
6216;BME280;3141;49.234;9.326;2023-11-21T00:02:59;99052.41;;;12.47;83.64
6216;BME280;3141;49.234;9.326;2023-11-21T00:04:00;99051.59;;;12.47;83.07
6216;BME280;3141;49.234;9.326;2023-11-21T00:05:02;99045.84;;;12.58;83.65
6216;BME280;3141;49.234;9.326;2023-11-21T00:06:04;99050.75;;;12.61;83.86
6216;BME280;3141;49.234;9.326;2023-11-21T00:07:05;99048.75;;;12.63;83.62
6216;BME280;3141;49.234;9.326;2023-11-21T00:08:07;99050.94;;;12.59;83.24
6216;BME280;3141;49.234;9.326;2023-11-21T00:09:08;99043.78;;;12.60;83.53
6216;BME280;3141;49.234;9.326;2023-11-21T00:10:11;99041.78;;;12.62;83.04
6216;BME280;3141;49.234;9.326;2023-11-21T00:11:15;99044.44;;;12.62;83.92
6216;BME280;3141;49.234;9.326;2023-11-21T00:12:16;99042.81;;;12.61;83.52
6216;BME280;3141;49.234;9.326;2023-11-21T00:13:19;99040.53;;;12.58;83.39
6216;BME280;3141;49.234;9.326;2023-11-21T00:14:20;99046.44;;;12.60;83.81
6216;BME280;3141;49.234;9.326;2023-11-21T00:15:20;99042.88;;;12.53;83.53
6216;BME280;3141;49.234;9.326;2023-11-21T00:16:22;99043.72;;;12.53;83.68
6216;BME280;3141;49.234;9.326;2023-11-21T00:17:24;99040.06;;;12.54;84.19
6216;BME280;3141;49.234;9.326;2023-11-21T00:18:25;99044.53;;;12.54;84.01
6216;BME280;3141;49.234;9.326;2023-11-21T00:19:26;99043.63;;;12.47;83.87
6216;BME280;3141;49.234;9.326;2023-11-21T00:20:27;99049.66;;;12.55;83.15
6216;BME280;3141;49.234;9.326;2023-11-21T00:21:28;99044.16;;;12.57;83.44
6216;BME280;3141;49.234;9.326;2023-11-21T00:22:29;99049.84;;;12.54;83.61
6216;BME280;3141;49.234;9.326;2023-11-21T00:23:30;99050.22;;;12.51;83.13
6216;BME280;3141;49.234;9.326;2023-11-21T00:24:31;99045.84;;;12.58;83.86
6216;BME280;3141;49.234;9.326;2023-11-21T00:25:32;99052.78;;;12.59;84.29
6216;BME280;3141;49.234;9.326;2023-11-21T00:26:34;99045.84;;;12.58;83.47
6216;BME280;3141;49.234;9.326;2023-11-21T00:27:38;99048.19;;;12.53;82.73
6216;BME280;3141;49.234;9.326;2023-11-21T00:28:38;99046.63;;;12.58;82.90
6216;BME280;3141;49.234;9.326;2023-11-21T00:29:40;99048.31;;;12.59;83.51
6216;BME280;3141;49.234;9.326;2023-11-21T00:30:41;99043.59;;;12.61;84.12
6216;BME280;3141;49.234;9.326;2023-11-21T00:31:42;99044.63;;;12.60;84.14
6216;BME280;3141;49.234;9.326;2023-11-21T00:32:43;99048.75;;;12.63;84.17
6216;BME280;3141;49.234;9.326;2023-11-21T00:33:44;99051.56;;;12.61;83.86
6216;BME280;3141;49.234;9.326;2023-11-21T00:34:45;99047.91;;;12.62;83.60
6216;BME280;3141;49.234;9.326;2023-11-21T00:35:46;99045.84;;;12.58;83.67
6216;BME280;3141;49.234;9.326;2023-11-21T00:36:47;99046.56;;;12.52;83.38
6216;BME280;3141;49.234;9.326;2023-11-21T00:37:48;99046.28;;;12.47;83.39
6216;BME280;3141;49.234;9.326;2023-11-21T00:38:50;99044.09;;;12.50;83.84
6216;BME280;3141;49.234;9.326;2023-11-21T00:39:51;99044.53;;;12.54;84.01
6216;BME280;3141;49.234;9.326;2023-11-21T00:40:51;99053.59;;;12.45;83.77
6216;BME280;3141;49.234;9.326;2023-11-21T00:41:53;99048.94;;;12.47;83.81
6216;BME280;3141;49.234;9.326;2023-11-21T00:42:54;99051.41;;;12.48;83.61
6216;BME280;3141;49.234;9.326;2023-11-21T00:43:56;99052.16;;;12.42;83.35
6216;BME280;3141;49.234;9.326;2023-11-21T00:44:58;99050.75;;;12.32;84.04
6216;BME280;3141;49.234;9.326;2023-11-21T00:45:59;99045.66;;;12.30;84.39
6216;BME280;3141;49.234;9.326;2023-11-21T00:47:00;99048.84;;;12.40;84.18
6216;BME280;3141;49.234;9.326;2023-11-21T00:48:01;99049.91;;;12.46;83.90
6216;BME280;3141;49.234;9.326;2023-11-21T00:49:02;99040.72;;;12.42;84.62
6216;BME280;3141;49.234;9.326;2023-11-21T00:50:05;99046.84;;;12.42;84.98
6216;BME280;3141;49.234;9.326;2023-11-21T00:51:09;99038.88;;;12.42;85.47
6216;BME280;3141;49.234;9.326;2023-11-21T00:52:10;99038.72;;;12.44;85.29
6216;BME280;3141;49.234;9.326;2023-11-21T00:53:11;99040.72;;;12.42;85.63
6216;BME280;3141;49.234;9.326;2023-11-21T00:54:12;99036.84;;;12.44;85.66
6216;BME280;3141;49.234;9.326;2023-11-21T00:55:13;99043.16;;;12.43;85.49
6216;BME280;3141;49.234;9.326;2023-11-21T00:56:14;99036.25;;;12.42;85.75
6216;BME280;3141;49.234;9.326;2023-11-21T00:57:15;99036.88;;;12.30;85.47
6216;BME280;3141;49.234;9.326;2023-11-21T00:58:16;99048.44;;;12.29;86.26
6216;BME280;3141;49.234;9.326;2023-11-21T00:59:17;99034.13;;;12.38;85.53
6216;BME280;3141;49.234;9.326;2023-11-21T01:00:18;99027.81;;;12.39;85.82
6216;BME280;3141;49.234;9.326;2023-11-21T01:01:20;99045.63;;;12.45;85.12
6216;BME280;3141;49.234;9.326;2023-11-21T01:02:22;99035.69;;;12.47;84.98
6216;BME280;3141;49.234;9.326;2023-11-21T01:03:23;99033.69;;;12.49;85.19
6216;BME280;3141;49.234;9.326;2023-11-21T01:04:25;99037.75;;;12.51;84.91
6216;BME280;3141;49.234;9.326;2023-11-21T01:05:26;99026.97;;;12.53;84.50
6216;BME280;3141;49.234;9.326;2023-11-21T01:06:27;99031.75;;;12.43;85.29
6216;BME280;3141;49.234;9.326;2023-11-21T01:07:28;99032.22;;;12.32;86.15
6216;BME280;3141;49.234;9.326;2023-11-21T01:08:28;99035.94;;;12.23;86.63
6216;BME280;3141;49.234;9.326;2023-11-21T01:09:29;99037.94;;;12.21;87.05
6216;BME280;3141;49.234;9.326;2023-11-21T01:10:30;99028.97;;;12.22;87.03
6216;BME280;3141;49.234;9.326;2023-11-21T01:11:31;99036.78;;;12.23;87.17
6216;BME280;3141;49.234;9.326;2023-11-21T01:12:37;99031.94;;;12.27;87.38
6216;BME280;3141;49.234;9.326;2023-11-21T01:13:39;99029.28;;;12.27;87.08
6216;BME280;3141;49.234;9.326;2023-11-21T01:14:40;99038.13;;;12.34;87.21
6216;BME280;3141;49.234;9.326;2023-11-21T01:15:42;99030.19;;;12.34;86.70
6216;BME280;3141;49.234;9.326;2023-11-21T01:16:43;99039.03;;;12.41;86.06
6216;BME280;3141;49.234;9.326;2023-11-21T01:17:44;99037.41;;;12.40;86.49
6216;BME280;3141;49.234;9.326;2023-11-21T01:18:45;99032.38;;;12.45;86.09
6216;BME280;3141;49.234;9.326;2023-11-21T01:19:45;99040.97;;;12.47;85.80
6216;BME280;3141;49.234;9.326;2023-11-21T01:20:46;99039.03;;;12.41;86.25
6216;BME280;3141;49.234;9.326;2023-11-21T01:21:47;99038.34;;;12.47;85.73
6216;BME280;3141;49.234;9.326;2023-11-21T01:22:49;99033.84;;;12.47;85.94
6216;BME280;3141;49.234;9.326;2023-11-21T01:23:50;99036.31;;;12.49;85.75
6216;BME280;3141;49.234;9.326;2023-11-21T01:24:54;99033.69;;;12.49;85.99
6216;BME280;3141;49.234;9.326;2023-11-21T01:25:56;99039.88;;;12.41;85.84
6216;BME280;3141;49.234;9.326;2023-11-21T01:26:57;99033.13;;;12.39;85.66
6216;BME280;3141;49.234;9.326;2023-11-21T01:27:58;99038.88;;;12.42;85.85
6216;BME280;3141;49.234;9.326;2023-11-21T01:28:59;99038.34;;;12.47;85.82
6216;BME280;3141;49.234;9.326;2023-11-21T01:30:01;99035.13;;;12.51;85.33
6216;BME280;3141;49.234;9.326;2023-11-21T01:31:02;99037.97;;;12.50;85.56
6216;BME280;3141;49.234;9.326;2023-11-21T01:32:03;99035.78;;;12.39;85.75
6216;BME280;3141;49.234;9.326;2023-11-21T01:33:04;99037.41;;;12.40;86.25
6216;BME280;3141;49.234;9.326;2023-11-21T01:34:05;99037.88;;;12.43;85.82
6216;BME280;3141;49.234;9.326;2023-11-21T01:35:06;99034.66;;;12.48;85.50
6216;BME280;3141;49.234;9.326;2023-11-21T01:36:08;99035.59;;;12.40;85.64
6216;BME280;3141;49.234;9.326;2023-11-21T01:37:09;99038.25;;;12.40;85.94
6216;BME280;3141;49.234;9.326;2023-11-21T01:38:12;99039.41;;;12.38;85.41
6216;BME280;3141;49.234;9.326;2023-11-21T01:39:13;99040.63;;;12.35;86.43
6216;BME280;3141;49.234;9.326;2023-11-21T01:40:16;99043.00;;;12.30;86.19
6216;BME280;3141;49.234;9.326;2023-11-21T01:41:17;99044.06;;;12.36;86.66
6216;BME280;3141;49.234;9.326;2023-11-21T01:42:18;99043.09;;;12.37;86.30
6216;BME280;3141;49.234;9.326;2023-11-21T01:43:19;99029.91;;;12.43;86.33
6216;BME280;3141;49.234;9.326;2023-11-21T01:44:20;99038.06;;;12.42;86.19
6216;BME280;3141;49.234;9.326;2023-11-21T01:45:21;99040.97;;;12.47;86.11
6216;BME280;3141;49.234;9.326;2023-11-21T01:46:23;99039.31;;;12.46;85.99
6216;BME280;3141;49.234;9.326;2023-11-21T01:47:25;99041.25;;;12.52;85.87
6216;BME280;3141;49.234;9.326;2023-11-21T01:48:27;99038.78;;;12.50;85.84
6216;BME280;3141;49.234;9.326;2023-11-21T01:49:28;99042.28;;;12.51;85.68
6216;BME280;3141;49.234;9.326;2023-11-21T01:50:29;99050.09;;;12.44;86.18
6216;BME280;3141;49.234;9.326;2023-11-21T01:51:30;99044.34;;;12.41;86.11
6216;BME280;3141;49.234;9.326;2023-11-21T01:52:33;99041.53;;;12.42;86.36
6216;BME280;3141;49.234;9.326;2023-11-21T01:53:35;99045.81;;;12.43;86.73
6216;BME280;3141;49.234;9.326;2023-11-21T01:54:37;99035.03;;;12.45;86.43
6216;BME280;3141;49.234;9.326;2023-11-21T01:55:40;99044.34;;;12.41;86.51
6216;BME280;3141;49.234;9.326;2023-11-21T01:56:42;99048.47;;;12.43;86.16
6216;BME280;3141;49.234;9.326;2023-11-21T01:57:43;99046.38;;;12.39;86.98
6216;BME280;3141;49.234;9.326;2023-11-21T01:58:45;99038.44;;;12.39;86.78
6216;BME280;3141;49.234;9.326;2023-11-21T01:59:48;99039.41;;;12.38;86.82
6216;BME280;3141;49.234;9.326;2023-11-21T02:00:50;99047.66;;;12.43;86.29
6216;BME280;3141;49.234;9.326;2023-11-21T02:01:52;99042.63;;;12.48;86.38
6216;BME280;3141;49.234;9.326;2023-11-21T02:02:53;99044.28;;;12.49;86.14
6216;BME280;3141;49.234;9.326;2023-11-21T02:03:54;99035.50;;;12.48;86.35
6216;BME280;3141;49.234;9.326;2023-11-21T02:04:56;99039.97;;;12.48;86.38
6216;BME280;3141;49.234;9.326;2023-11-21T02:05:57;99036.13;;;12.36;87.33
6216;BME280;3141;49.234;9.326;2023-11-21T02:07:00;99039.41;;;12.38;86.77
6216;BME280;3141;49.234;9.326;2023-11-21T02:08:01;99033.28;;;12.37;87.10
6216;BME280;3141;49.234;9.326;2023-11-21T02:09:03;99049.47;;;12.28;88.13
6216;BME280;3141;49.234;9.326;2023-11-21T02:10:06;99040.41;;;12.22;88.44
6216;BME280;3141;49.234;9.326;2023-11-21T02:11:08;99038.31;;;12.18;88.74
6216;BME280;3141;49.234;9.326;2023-11-21T02:12:10;99032.19;;;12.17;89.06
6216;BME280;3141;49.234;9.326;2023-11-21T02:13:11;99038.41;;;12.24;88.57
6216;BME280;3141;49.234;9.326;2023-11-21T02:14:12;99035.19;;;12.29;88.17
6216;BME280;3141;49.234;9.326;2023-11-21T02:15:14;99038.13;;;12.34;88.73
6216;BME280;3141;49.234;9.326;2023-11-21T02:16:21;99036.84;;;12.44;87.59
6216;BME280;3141;49.234;9.326;2023-11-21T02:17:22;99038.50;;;12.45;87.57
6216;BME280;3141;49.234;9.326;2023-11-21T02:18:23;99037.13;;;12.35;87.99
6216;BME280;3141;49.234;9.326;2023-11-21T02:19:23;99026.72;;;12.33;87.79
6216;BME280;3141;49.234;9.326;2023-11-21T02:20:26;99035.41;;;12.42;87.45
6216;BME280;3141;49.234;9.326;2023-11-21T02:21:30;99041.53;;;12.42;87.39
6216;BME280;3141;49.234;9.326;2023-11-21T02:22:34;99038.50;;;12.45;86.99
6216;BME280;3141;49.234;9.326;2023-11-21T02:23:38;99035.31;;;12.50;87.06
6216;BME280;3141;49.234;9.326;2023-11-21T02:24:42;99036.59;;;12.54;86.62
6216;BME280;3141;49.234;9.326;2023-11-21T02:25:44;99034.66;;;12.48;86.77
6216;BME280;3141;49.234;9.326;2023-11-21T02:26:45;99033.84;;;12.47;86.62
6216;BME280;3141;49.234;9.326;2023-11-21T02:27:46;99031.94;;;12.41;87.00
6216;BME280;3141;49.234;9.326;2023-11-21T02:28:48;99035.03;;;12.45;86.98
6216;BME280;3141;49.234;9.326;2023-11-21T02:29:50;99037.13;;;12.49;86.54
6216;BME280;3141;49.234;9.326;2023-11-21T02:30:52;99034.66;;;12.48;86.78
6216;BME280;3141;49.234;9.326;2023-11-21T02:31:57;99036.97;;;12.51;86.51
6216;BME280;3141;49.234;9.326;2023-11-21T02:32:59;99040.41;;;12.51;86.48
6216;BME280;3141;49.234;9.326;2023-11-21T02:34:00;99038.34;;;12.47;86.92
6216;BME280;3141;49.234;9.326;2023-11-21T02:35:01;99037.97;;;12.50;87.09
6216;BME280;3141;49.234;9.326;2023-11-21T02:36:04;99039.25;;;12.54;86.92
6216;BME280;3141;49.234;9.326;2023-11-21T02:37:06;99042.16;;;12.59;86.83
6216;BME280;3141;49.234;9.326;2023-11-21T02:38:07;99031.19;;;12.62;86.30
6216;BME280;3141;49.234;9.326;2023-11-21T02:39:08;99041.59;;;12.63;85.79
6216;BME280;3141;49.234;9.326;2023-11-21T02:40:10;99034.84;;;12.61;85.90
6216;BME280;3141;49.234;9.326;2023-11-21T02:41:12;99035.22;;;12.58;86.17
6216;BME280;3141;49.234;9.326;2023-11-21T02:42:14;99037.50;;;12.61;85.96
6216;BME280;3141;49.234;9.326;2023-11-21T02:43:15;99036.88;;;12.59;86.08
6216;BME280;3141;49.234;9.326;2023-11-21T02:44:16;99035.50;;;12.48;86.57
6216;BME280;3141;49.234;9.326;2023-11-21T02:45:19;99041.06;;;12.53;86.46
6216;BME280;3141;49.234;9.326;2023-11-21T02:46:21;99029.00;;;12.51;86.45
6216;BME280;3141;49.234;9.326;2023-11-21T02:47:23;99032.91;;;12.55;86.39
6216;BME280;3141;49.234;9.326;2023-11-21T02:48:24;99034.41;;;12.57;86.00
6216;BME280;3141;49.234;9.326;2023-11-21T02:49:26;99026.97;;;12.53;86.53
6216;BME280;3141;49.234;9.326;2023-11-21T02:50:31;99032.13;;;12.54;86.87
6216;BME280;3141;49.234;9.326;2023-11-21T02:51:33;99033.94;;;12.54;86.64
6216;BME280;3141;49.234;9.326;2023-11-21T02:52:35;99027.44;;;12.56;86.44
6216;BME280;3141;49.234;9.326;2023-11-21T02:53:35;99027.09;;;12.59;86.31
6216;BME280;3141;49.234;9.326;2023-11-21T02:54:36;99030.34;;;12.61;86.41
6216;BME280;3141;49.234;9.326;2023-11-21T02:55:37;99022.16;;;12.42;86.49
6216;BME280;3141;49.234;9.326;2023-11-21T02:56:38;99029.34;;;12.48;86.75
6216;BME280;3141;49.234;9.326;2023-11-21T02:57:40;99024.97;;;12.55;86.63
6216;BME280;3141;49.234;9.326;2023-11-21T02:58:41;99021.66;;;12.53;86.53
6216;BME280;3141;49.234;9.326;2023-11-21T02:59:43;99019.84;;;12.53;86.58
6216;BME280;3141;49.234;9.326;2023-11-21T03:00:44;99020.75;;;12.46;87.10
6216;BME280;3141;49.234;9.326;2023-11-21T03:01:45;99026.38;;;12.51;86.87
6216;BME280;3141;49.234;9.326;2023-11-21T03:02:47;99024.06;;;12.48;87.12
6216;BME280;3141;49.234;9.326;2023-11-21T03:03:48;99020.41;;;12.49;87.34
6216;BME280;3141;49.234;9.326;2023-11-21T03:04:51;99022.13;;;12.56;86.93
6216;BME280;3141;49.234;9.326;2023-11-21T03:05:52;99018.03;;;12.54;87.30
6216;BME280;3141;49.234;9.326;2023-11-21T03:06:53;99020.69;;;12.54;87.22
6216;BME280;3141;49.234;9.326;2023-11-21T03:07:54;99023.34;;;12.54;87.00
6216;BME280;3141;49.234;9.326;2023-11-21T03:08:56;99027.44;;;12.56;86.96
6216;BME280;3141;49.234;9.326;2023-11-21T03:09:57;99020.50;;;12.55;86.88
6216;BME280;3141;49.234;9.326;2023-11-21T03:10:58;99018.56;;;12.49;87.18
6216;BME280;3141;49.234;9.326;2023-11-21T03:11:59;99017.13;;;12.47;87.85
6216;BME280;3141;49.234;9.326;2023-11-21T03:13:00;99016.22;;;12.40;87.97
6216;BME280;3141;49.234;9.326;2023-11-21T03:14:01;99021.97;;;12.43;87.77
6216;BME280;3141;49.234;9.326;2023-11-21T03:15:02;99017.75;;;12.34;87.90
6216;BME280;3141;49.234;9.326;2023-11-21T03:16:04;99016.66;;;12.43;87.67
6216;BME280;3141;49.234;9.326;2023-11-21T03:17:05;99013.81;;;12.45;86.79
6216;BME280;3141;49.234;9.326;2023-11-21T03:18:07;99015.75;;;12.51;87.36
6216;BME280;3141;49.234;9.326;2023-11-21T03:19:09;99014.75;;;12.52;86.66
6216;BME280;3141;49.234;9.326;2023-11-21T03:20:10;99017.03;;;12.40;86.50
6216;BME280;3141;49.234;9.326;2023-11-21T03:21:12;99018.41;;;12.36;86.18
6216;BME280;3141;49.234;9.326;2023-11-21T03:22:13;99022.50;;;12.53;86.27
6216;BME280;3141;49.234;9.326;2023-11-21T03:23:14;99020.75;;;12.60;86.67
6216;BME280;3141;49.234;9.326;2023-11-21T03:24:16;99022.25;;;12.63;86.89
6216;BME280;3141;49.234;9.326;2023-11-21T03:25:20;99021.03;;;12.65;86.59
6216;BME280;3141;49.234;9.326;2023-11-21T03:26:21;99017.91;;;12.62;86.94
6216;BME280;3141;49.234;9.326;2023-11-21T03:27:22;99018.94;;;12.61;86.65
6216;BME280;3141;49.234;9.326;2023-11-21T03:28:23;99016.03;;;12.56;86.72
6216;BME280;3141;49.234;9.326;2023-11-21T03:29:25;99022.03;;;12.50;87.09
6216;BME280;3141;49.234;9.326;2023-11-21T03:30:26;99019.78;;;12.47;86.82
6216;BME280;3141;49.234;9.326;2023-11-21T03:31:27;99019.84;;;12.53;87.12
6216;BME280;3141;49.234;9.326;2023-11-21T03:32:28;99026.63;;;12.56;87.02
6216;BME280;3141;49.234;9.326;2023-11-21T03:33:29;99020.94;;;12.59;87.15
6216;BME280;3141;49.234;9.326;2023-11-21T03:34:30;99024.31;;;12.53;87.14
6216;BME280;3141;49.234;9.326;2023-11-21T03:35:31;99022.97;;;12.57;86.99
6216;BME280;3141;49.234;9.326;2023-11-21T03:36:32;99028.91;;;12.59;86.88
6216;BME280;3141;49.234;9.326;2023-11-21T03:37:33;99031.38;;;12.60;86.61
6216;BME280;3141;49.234;9.326;2023-11-21T03:38:34;99030.81;;;12.65;86.30
6216;BME280;3141;49.234;9.326;2023-11-21T03:39:35;99033.75;;;12.70;86.12
6216;BME280;3141;49.234;9.326;2023-11-21T03:40:36;99034.38;;;12.72;86.05
6216;BME280;3141;49.234;9.326;2023-11-21T03:41:37;99034.38;;;12.72;86.07
6216;BME280;3141;49.234;9.326;2023-11-21T03:42:39;99034.38;;;12.72;86.11
6216;BME280;3141;49.234;9.326;2023-11-21T03:43:40;99034.38;;;12.72;86.08
6216;BME280;3141;49.234;9.326;2023-11-21T03:44:41;99034.63;;;12.77;85.77
6216;BME280;3141;49.234;9.326;2023-11-21T03:45:42;99029.72;;;12.74;85.80
6216;BME280;3141;49.234;9.326;2023-11-21T03:46:43;99034.66;;;12.62;86.12
6216;BME280;3141;49.234;9.326;2023-11-21T03:47:45;99035.56;;;12.55;87.32
6216;BME280;3141;49.234;9.326;2023-11-21T03:48:46;99034.31;;;12.51;87.08
6216;BME280;3141;49.234;9.326;2023-11-21T03:49:46;99032.28;;;12.53;86.83
6216;BME280;3141;49.234;9.326;2023-11-21T03:50:47;99034.84;;;12.61;86.56
6216;BME280;3141;49.234;9.326;2023-11-21T03:51:48;99031.81;;;12.64;86.36
6216;BME280;3141;49.234;9.326;2023-11-21T03:52:49;99030.91;;;12.57;86.98
6216;BME280;3141;49.234;9.326;2023-11-21T03:53:50;99024.69;;;12.50;86.75
6216;BME280;3141;49.234;9.326;2023-11-21T03:54:51;99026.25;;;12.59;86.53
6216;BME280;3141;49.234;9.326;2023-11-21T03:55:52;99031.56;;;12.59;86.44
6216;BME280;3141;49.234;9.326;2023-11-21T03:56:53;99027.88;;;12.60;86.24
6216;BME280;3141;49.234;9.326;2023-11-21T03:57:54;99038.03;;;12.56;86.08
6216;BME280;3141;49.234;9.326;2023-11-21T03:58:55;99032.00;;;12.62;86.17
6216;BME280;3141;49.234;9.326;2023-11-21T03:59:56;99031.56;;;12.59;85.78
6216;BME280;3141;49.234;9.326;2023-11-21T04:00:57;99032.47;;;12.51;86.23
6216;BME280;3141;49.234;9.326;2023-11-21T04:01:58;99036.03;;;12.58;86.12
6216;BME280;3141;49.234;9.326;2023-11-21T04:02:59;99034.03;;;12.60;86.05
6216;BME280;3141;49.234;9.326;2023-11-21T04:04:00;99039.63;;;12.51;85.31
6216;BME280;3141;49.234;9.326;2023-11-21T04:05:01;99034.84;;;12.61;85.47
6216;BME280;3141;49.234;9.326;2023-11-21T04:06:02;99039.78;;;12.64;86.12
6216;BME280;3141;49.234;9.326;2023-11-21T04:07:04;99040.81;;;12.63;86.07
6216;BME280;3141;49.234;9.326;2023-11-21T04:08:05;99043.44;;;12.63;85.84
6216;BME280;3141;49.234;9.326;2023-11-21T04:09:06;99041.41;;;12.36;86.15
6216;BME280;3141;49.234;9.326;2023-11-21T04:10:08;99040.59;;;12.50;86.84
6216;BME280;3141;49.234;9.326;2023-11-21T04:11:10;99039.13;;;12.62;86.44
6216;BME280;3141;49.234;9.326;2023-11-21T04:12:13;99045.28;;;12.62;86.05
6216;BME280;3141;49.234;9.326;2023-11-21T04:13:13;99040.53;;;12.58;86.01
6216;BME280;3141;49.234;9.326;2023-11-21T04:14:14;99042.69;;;12.69;85.67
6216;BME280;3141;49.234;9.326;2023-11-21T04:15:15;99046.81;;;12.71;85.46
6216;BME280;3141;49.234;9.326;2023-11-21T04:16:16;99048.00;;;12.69;85.86
6216;BME280;3141;49.234;9.326;2023-11-21T04:17:18;99048.66;;;12.56;85.91
6216;BME280;3141;49.234;9.326;2023-11-21T04:18:20;99046.72;;;12.65;85.62
6216;BME280;3141;49.234;9.326;2023-11-21T04:19:21;99052.66;;;12.67;85.77
6216;BME280;3141;49.234;9.326;2023-11-21T04:20:22;99050.69;;;12.54;86.57
6216;BME280;3141;49.234;9.326;2023-11-21T04:21:24;99049.75;;;12.62;85.93
6216;BME280;3141;49.234;9.326;2023-11-21T04:22:25;99041.25;;;12.52;85.73
6216;BME280;3141;49.234;9.326;2023-11-21T04:23:27;99046.81;;;12.57;85.47
6216;BME280;3141;49.234;9.326;2023-11-21T04:24:28;99046.09;;;12.63;85.54
6216;BME280;3141;49.234;9.326;2023-11-21T04:25:29;99050.28;;;12.72;85.86
6216;BME280;3141;49.234;9.326;2023-11-21T04:26:30;99044.78;;;12.73;85.56
6216;BME280;3141;49.234;9.326;2023-11-21T04:27:30;99043.59;;;12.61;85.77
6216;BME280;3141;49.234;9.326;2023-11-21T04:28:31;99048.56;;;12.50;86.17
6216;BME280;3141;49.234;9.326;2023-11-21T04:29:32;99048.75;;;12.63;85.67
6216;BME280;3141;49.234;9.326;2023-11-21T04:30:33;99043.06;;;12.51;85.86
6216;BME280;3141;49.234;9.326;2023-11-21T04:31:34;99048.19;;;12.53;85.32
6216;BME280;3141;49.234;9.326;2023-11-21T04:32:35;99050.75;;;12.61;84.94
6216;BME280;3141;49.234;9.326;2023-11-21T04:33:36;99048.75;;;12.63;85.39
6216;BME280;3141;49.234;9.326;2023-11-21T04:34:37;99046.00;;;12.71;85.08
6216;BME280;3141;49.234;9.326;2023-11-21T04:35:38;99045.56;;;12.38;86.18
6216;BME280;3141;49.234;9.326;2023-11-21T04:36:39;99051.56;;;12.32;87.39
6216;BME280;3141;49.234;9.326;2023-11-21T04:37:41;99048.94;;;12.47;86.67
6216;BME280;3141;49.234;9.326;2023-11-21T04:38:41;99049.66;;;12.55;85.85
6216;BME280;3141;49.234;9.326;2023-11-21T04:39:43;99043.97;;;12.58;86.00
6216;BME280;3141;49.234;9.326;2023-11-21T04:40:43;99054.41;;;12.60;85.59
6216;BME280;3141;49.234;9.326;2023-11-21T04:41:44;99053.41;;;12.61;86.09
6216;BME280;3141;49.234;9.326;2023-11-21T04:42:45;99056.44;;;12.58;85.74
6216;BME280;3141;49.234;9.326;2023-11-21T04:43:47;99050.84;;;12.38;86.24
6216;BME280;3141;49.234;9.326;2023-11-21T04:44:49;99053.03;;;12.49;86.37
6216;BME280;3141;49.234;9.326;2023-11-21T04:45:50;99060.09;;;12.57;85.50
6216;BME280;3141;49.234;9.326;2023-11-21T04:46:51;99055.03;;;12.62;85.40
6216;BME280;3141;49.234;9.326;2023-11-21T04:47:52;99054.16;;;12.40;86.16
6216;BME280;3141;49.234;9.326;2023-11-21T04:48:53;99049.50;;;12.42;86.40
6216;BME280;3141;49.234;9.326;2023-11-21T04:49:54;99050.94;;;12.45;86.07
6216;BME280;3141;49.234;9.326;2023-11-21T04:50:55;99052.22;;;12.49;86.33
6216;BME280;3141;49.234;9.326;2023-11-21T04:51:56;99052.16;;;12.42;86.62
6216;BME280;3141;49.234;9.326;2023-11-21T04:52:57;99050.09;;;12.44;86.89
6216;BME280;3141;49.234;9.326;2023-11-21T04:53:58;99060.81;;;12.51;86.18
6216;BME280;3141;49.234;9.326;2023-11-21T04:54:59;99052.88;;;12.51;86.80
6216;BME280;3141;49.234;9.326;2023-11-21T04:56:02;99055.53;;;12.51;86.18
6216;BME280;3141;49.234;9.326;2023-11-21T04:57:04;99060.44;;;12.54;85.97
6216;BME280;3141;49.234;9.326;2023-11-21T04:58:08;99060.34;;;12.62;85.44
6216;BME280;3141;49.234;9.326;2023-11-21T04:59:09;99060.78;;;12.22;88.16
6216;BME280;3141;49.234;9.326;2023-11-21T05:00:10;99071.13;;;12.46;86.69
6216;BME280;3141;49.234;9.326;2023-11-21T05:01:11;99070.13;;;12.47;86.53
6216;BME280;3141;49.234;9.326;2023-11-21T05:02:12;99069.69;;;12.43;86.79
6216;BME280;3141;49.234;9.326;2023-11-21T05:03:14;99070.84;;;12.41;86.53
6216;BME280;3141;49.234;9.326;2023-11-21T05:04:15;99068.22;;;12.55;85.72
6216;BME280;3141;49.234;9.326;2023-11-21T05:05:16;99065.09;;;12.37;86.63
6216;BME280;3141;49.234;9.326;2023-11-21T05:06:17;99059.59;;;12.24;87.10
6216;BME280;3141;49.234;9.326;2023-11-21T05:07:18;99065.28;;;12.36;87.12
6216;BME280;3141;49.234;9.326;2023-11-21T05:08:19;99065.66;;;12.33;87.41
6216;BME280;3141;49.234;9.326;2023-11-21T05:09:21;99067.75;;;12.37;87.21
6216;BME280;3141;49.234;9.326;2023-11-21T05:10:23;99067.22;;;12.42;86.84
6216;BME280;3141;49.234;9.326;2023-11-21T05:11:27;99072.16;;;12.45;86.55
6216;BME280;3141;49.234;9.326;2023-11-21T05:12:31;99061.25;;;12.25;87.14
6216;BME280;3141;49.234;9.326;2023-11-21T05:13:37;99065.41;;;12.42;87.00
6216;BME280;3141;49.234;9.326;2023-11-21T05:14:39;99067.13;;;12.50;86.51
6216;BME280;3141;49.234;9.326;2023-11-21T05:15:40;99076.44;;;12.60;85.89
6216;BME280;3141;49.234;9.326;2023-11-21T05:16:41;99073.44;;;12.49;86.21
6216;BME280;3141;49.234;9.326;2023-11-21T05:17:44;99071.78;;;12.48;86.39
6216;BME280;3141;49.234;9.326;2023-11-21T05:18:45;99079.38;;;12.51;86.25
6216;BME280;3141;49.234;9.326;2023-11-21T05:19:46;99072.78;;;12.61;85.65
6216;BME280;3141;49.234;9.326;2023-11-21T05:20:49;99069.69;;;12.43;86.54
6216;BME280;3141;49.234;9.326;2023-11-21T05:21:51;99073.78;;;12.46;86.48
6216;BME280;3141;49.234;9.326;2023-11-21T05:22:52;99072.69;;;12.55;86.09
6216;BME280;3141;49.234;9.326;2023-11-21T05:23:53;99073.06;;;12.52;86.10
6216;BME280;3141;49.234;9.326;2023-11-21T05:24:54;99079.75;;;12.62;85.83
6216;BME280;3141;49.234;9.326;2023-11-21T05:25:55;99082.59;;;12.61;85.78
6216;BME280;3141;49.234;9.326;2023-11-21T05:26:57;99076.34;;;12.54;86.42
6216;BME280;3141;49.234;9.326;2023-11-21T05:27:58;99081.56;;;12.47;86.45
6216;BME280;3141;49.234;9.326;2023-11-21T05:29:02;99086.22;;;12.60;85.83
6216;BME280;3141;49.234;9.326;2023-11-21T05:30:04;99078.72;;;12.20;87.39
6216;BME280;3141;49.234;9.326;2023-11-21T05:31:12;99080.19;;;12.37;87.03
6216;BME280;3141;49.234;9.326;2023-11-21T05:32:13;99083.13;;;12.42;86.94
6216;BME280;3141;49.234;9.326;2023-11-21T05:33:14;99088.25;;;12.43;86.90
6216;BME280;3141;49.234;9.326;2023-11-21T05:34:15;99091.13;;;12.34;86.93
6216;BME280;3141;49.234;9.326;2023-11-21T05:35:16;99091.16;;;12.48;86.93